sensor_id;sensor_type;location;lat;lon;timestamp;temperature;humidity
15969;DHT22;8085;53.472;9.794;2023-03-26T00:00:00;7.20;99.90
15969;DHT22;8085;53.472;9.794;2023-03-26T00:02:26;7.20;99.90
15969;DHT22;8085;53.472;9.794;2023-03-26T00:04:54;7.20;99.90
15969;DHT22;8085;53.472;9.794;2023-03-26T00:07:20;7.20;99.90
15969;DHT22;8085;53.472;9.794;2023-03-26T00:09:47;7.20;99.90
15969;DHT22;8085;53.472;9.794;2023-03-26T00:12:14;7.10;99.90
15969;DHT22;8085;53.472;9.794;2023-03-26T00:14:41;7.20;99.90
15969;DHT22;8085;53.472;9.794;2023-03-26T00:17:09;7.10;99.90
15969;DHT22;8085;53.472;9.794;2023-03-26T00:19:36;7.10;99.90
15969;DHT22;8085;53.472;9.794;2023-03-26T00:22:03;7.10;99.90
15969;DHT22;8085;53.472;9.794;2023-03-26T00:24:30;7.10;99.90
15969;DHT22;8085;53.472;9.794;2023-03-26T00:26:57;7.10;99.90
15969;DHT22;8085;53.472;9.794;2023-03-26T00:29:24;7.10;99.90
15969;DHT22;8085;53.472;9.794;2023-03-26T00:31:52;7.10;99.90
15969;DHT22;8085;53.472;9.794;2023-03-26T00:34:21;7.10;99.90
15969;DHT22;8085;53.472;9.794;2023-03-26T00:36:49;7.10;99.90
15969;DHT22;8085;53.472;9.794;2023-03-26T00:39:18;7.10;99.90
15969;DHT22;8085;53.472;9.794;2023-03-26T00:41:46;7.10;99.90
15969;DHT22;8085;53.472;9.794;2023-03-26T00:44:13;7.10;99.90
15969;DHT22;8085;53.472;9.794;2023-03-26T00:46:40;7.00;99.90
15969;DHT22;8085;53.472;9.794;2023-03-26T00:49:07;7.00;99.90
15969;DHT22;8085;53.472;9.794;2023-03-26T00:51:36;7.00;99.90
15969;DHT22;8085;53.472;9.794;2023-03-26T00:54:03;7.10;99.90
15969;DHT22;8085;53.472;9.794;2023-03-26T00:56:32;7.10;99.90
15969;DHT22;8085;53.472;9.794;2023-03-26T00:58:59;7.10;99.90
15969;DHT22;8085;53.472;9.794;2023-03-26T01:01:27;7.10;99.90
15969;DHT22;8085;53.472;9.794;2023-03-26T01:03:56;7.00;99.90
15969;DHT22;8085;53.472;9.794;2023-03-26T01:06:26;7.00;99.90
15969;DHT22;8085;53.472;9.794;2023-03-26T01:09:01;6.90;99.90
15969;DHT22;8085;53.472;9.794;2023-03-26T01:11:31;6.90;99.90
15969;DHT22;8085;53.472;9.794;2023-03-26T01:14:01;6.80;99.90
15969;DHT22;8085;53.472;9.794;2023-03-26T01:16:35;6.80;99.90
15969;DHT22;8085;53.472;9.794;2023-03-26T01:19:05;6.80;99.90
15969;DHT22;8085;53.472;9.794;2023-03-26T01:21:35;6.80;99.90
15969;DHT22;8085;53.472;9.794;2023-03-26T01:24:05;6.70;99.90
15969;DHT22;8085;53.472;9.794;2023-03-26T01:29:40;6.70;99.90
15969;DHT22;8085;53.472;9.794;2023-03-26T01:32:18;6.70;99.90
15969;DHT22;8085;53.472;9.794;2023-03-26T01:34:56;6.70;99.90
15969;DHT22;8085;53.472;9.794;2023-03-26T01:37:32;6.70;99.90
15969;DHT22;8085;53.472;9.794;2023-03-26T01:40:04;6.70;99.90
15969;DHT22;8085;53.472;9.794;2023-03-26T01:42:38;6.70;99.90
15969;DHT22;8085;53.472;9.794;2023-03-26T01:45:12;6.70;99.90
15969;DHT22;8085;53.472;9.794;2023-03-26T01:47:41;6.70;99.90
15969;DHT22;8085;53.472;9.794;2023-03-26T01:50:08;6.60;99.90
15969;DHT22;8085;53.472;9.794;2023-03-26T01:52:35;6.60;99.90
15969;DHT22;8085;53.472;9.794;2023-03-26T01:55:05;6.60;99.90
15969;DHT22;8085;53.472;9.794;2023-03-26T01:57:45;6.60;99.90
15969;DHT22;8085;53.472;9.794;2023-03-26T02:00:21;6.60;99.90
15969;DHT22;8085;53.472;9.794;2023-03-26T02:03:00;6.60;99.90
15969;DHT22;8085;53.472;9.794;2023-03-26T02:05:34;6.70;99.90
15969;DHT22;8085;53.472;9.794;2023-03-26T02:08:06;6.60;99.90
15969;DHT22;8085;53.472;9.794;2023-03-26T02:10:39;6.60;99.90
15969;DHT22;8085;53.472;9.794;2023-03-26T02:13:08;6.60;99.90
15969;DHT22;8085;53.472;9.794;2023-03-26T02:15:36;6.70;99.90
15969;DHT22;8085;53.472;9.794;2023-03-26T02:18:03;6.60;99.90
15969;DHT22;8085;53.472;9.794;2023-03-26T02:20:30;6.60;99.90
15969;DHT22;8085;53.472;9.794;2023-03-26T02:22:58;6.60;99.90
15969;DHT22;8085;53.472;9.794;2023-03-26T02:25:25;6.60;99.90
15969;DHT22;8085;53.472;9.794;2023-03-26T02:27:53;6.60;99.90
15969;DHT22;8085;53.472;9.794;2023-03-26T02:30:23;6.50;99.90
15969;DHT22;8085;53.472;9.794;2023-03-26T02:32:51;6.40;99.90
15969;DHT22;8085;53.472;9.794;2023-03-26T02:35:19;6.50;99.90
15969;DHT22;8085;53.472;9.794;2023-03-26T02:37:46;6.50;99.90
15969;DHT22;8085;53.472;9.794;2023-03-26T02:40:16;6.50;99.90
15969;DHT22;8085;53.472;9.794;2023-03-26T02:42:45;6.40;99.90
15969;DHT22;8085;53.472;9.794;2023-03-26T02:45:14;6.30;99.90
15969;DHT22;8085;53.472;9.794;2023-03-26T02:47:41;6.20;99.90
15969;DHT22;8085;53.472;9.794;2023-03-26T02:50:10;6.30;99.90
15969;DHT22;8085;53.472;9.794;2023-03-26T02:52:40;6.20;99.90
15969;DHT22;8085;53.472;9.794;2023-03-26T02:55:08;6.10;99.90
15969;DHT22;8085;53.472;9.794;2023-03-26T02:57:35;6.10;99.90
15969;DHT22;8085;53.472;9.794;2023-03-26T03:00:02;6.10;99.90
15969;DHT22;8085;53.472;9.794;2023-03-26T03:02:40;6.10;99.90
15969;DHT22;8085;53.472;9.794;2023-03-26T03:05:09;6.10;99.90
15969;DHT22;8085;53.472;9.794;2023-03-26T03:07:36;6.10;99.90
15969;DHT22;8085;53.472;9.794;2023-03-26T03:10:04;6.00;99.90
15969;DHT22;8085;53.472;9.794;2023-03-26T03:12:34;6.00;99.90
15969;DHT22;8085;53.472;9.794;2023-03-26T03:15:02;5.90;99.90
15969;DHT22;8085;53.472;9.794;2023-03-26T03:17:29;5.90;99.90
15969;DHT22;8085;53.472;9.794;2023-03-26T03:19:57;5.80;99.90
15969;DHT22;8085;53.472;9.794;2023-03-26T03:22:24;5.80;99.90
15969;DHT22;8085;53.472;9.794;2023-03-26T03:24:50;5.80;99.90
15969;DHT22;8085;53.472;9.794;2023-03-26T03:27:17;5.80;99.90
15969;DHT22;8085;53.472;9.794;2023-03-26T03:29:45;5.80;99.90
15969;DHT22;8085;53.472;9.794;2023-03-26T03:32:12;5.80;99.90
15969;DHT22;8085;53.472;9.794;2023-03-26T03:34:38;5.80;99.90
15969;DHT22;8085;53.472;9.794;2023-03-26T03:37:08;5.80;99.90
15969;DHT22;8085;53.472;9.794;2023-03-26T03:39:35;5.80;99.90
15969;DHT22;8085;53.472;9.794;2023-03-26T03:42:02;5.80;99.90
15969;DHT22;8085;53.472;9.794;2023-03-26T03:44:29;5.80;99.90
15969;DHT22;8085;53.472;9.794;2023-03-26T03:46:56;5.80;99.90
15969;DHT22;8085;53.472;9.794;2023-03-26T03:49:22;5.80;99.90
15969;DHT22;8085;53.472;9.794;2023-03-26T03:51:49;5.80;99.90
15969;DHT22;8085;53.472;9.794;2023-03-26T03:54:17;5.90;99.90
15969;DHT22;8085;53.472;9.794;2023-03-26T03:56:44;5.90;99.90
15969;DHT22;8085;53.472;9.794;2023-03-26T03:59:13;6.00;99.90
15969;DHT22;8085;53.472;9.794;2023-03-26T04:01:42;6.00;99.90
15969;DHT22;8085;53.472;9.794;2023-03-26T04:04:11;6.00;99.90
15969;DHT22;8085;53.472;9.794;2023-03-26T04:06:38;6.00;99.90
15969;DHT22;8085;53.472;9.794;2023-03-26T04:09:04;6.00;99.90
15969;DHT22;8085;53.472;9.794;2023-03-26T04:11:33;6.10;99.90
15969;DHT22;8085;53.472;9.794;2023-03-26T04:14:00;6.10;99.90
15969;DHT22;8085;53.472;9.794;2023-03-26T04:16:26;6.10;99.90
15969;DHT22;8085;53.472;9.794;2023-03-26T04:18:53;6.10;99.90
15969;DHT22;8085;53.472;9.794;2023-03-26T04:21:21;6.10;99.90
15969;DHT22;8085;53.472;9.794;2023-03-26T04:23:49;6.10;99.90
15969;DHT22;8085;53.472;9.794;2023-03-26T04:26:17;6.10;99.90
15969;DHT22;8085;53.472;9.794;2023-03-26T04:28:48;6.00;99.90
15969;DHT22;8085;53.472;9.794;2023-03-26T04:31:19;6.00;99.90
15969;DHT22;8085;53.472;9.794;2023-03-26T04:33:49;6.00;99.90
15969;DHT22;8085;53.472;9.794;2023-03-26T04:36:22;5.90;99.90
15969;DHT22;8085;53.472;9.794;2023-03-26T04:38:52;5.90;99.90
15969;DHT22;8085;53.472;9.794;2023-03-26T04:41:19;5.80;99.90
15969;DHT22;8085;53.472;9.794;2023-03-26T04:43:52;5.70;99.90
15969;DHT22;8085;53.472;9.794;2023-03-26T04:46:19;5.70;99.90
15969;DHT22;8085;53.472;9.794;2023-03-26T04:48:46;5.70;99.90
15969;DHT22;8085;53.472;9.794;2023-03-26T04:51:14;5.60;99.90
15969;DHT22;8085;53.472;9.794;2023-03-26T04:53:43;5.60;99.90
15969;DHT22;8085;53.472;9.794;2023-03-26T04:56:15;5.60;99.90
15969;DHT22;8085;53.472;9.794;2023-03-26T04:58:47;5.60;99.90
15969;DHT22;8085;53.472;9.794;2023-03-26T05:01:17;5.60;99.90
15969;DHT22;8085;53.472;9.794;2023-03-26T05:03:44;5.60;99.90
15969;DHT22;8085;53.472;9.794;2023-03-26T05:06:12;5.60;99.90
15969;DHT22;8085;53.472;9.794;2023-03-26T05:08:39;5.60;99.90
15969;DHT22;8085;53.472;9.794;2023-03-26T05:11:08;5.60;99.90
15969;DHT22;8085;53.472;9.794;2023-03-26T05:13:36;5.40;99.90
15969;DHT22;8085;53.472;9.794;2023-03-26T05:16:03;5.30;99.90
15969;DHT22;8085;53.472;9.794;2023-03-26T05:18:31;5.30;99.90
15969;DHT22;8085;53.472;9.794;2023-03-26T05:20:58;5.30;99.90
15969;DHT22;8085;53.472;9.794;2023-03-26T05:23:25;5.30;99.90
15969;DHT22;8085;53.472;9.794;2023-03-26T05:25:52;5.20;99.90
15969;DHT22;8085;53.472;9.794;2023-03-26T05:28:19;5.20;99.90
15969;DHT22;8085;53.472;9.794;2023-03-26T05:30:48;5.20;99.90
15969;DHT22;8085;53.472;9.794;2023-03-26T05:33:17;5.20;99.90
15969;DHT22;8085;53.472;9.794;2023-03-26T05:35:45;5.20;99.90
15969;DHT22;8085;53.472;9.794;2023-03-26T05:38:13;5.10;99.90
15969;DHT22;8085;53.472;9.794;2023-03-26T05:40:40;5.10;99.90
15969;DHT22;8085;53.472;9.794;2023-03-26T05:43:07;5.10;99.90
15969;DHT22;8085;53.472;9.794;2023-03-26T05:45:34;5.10;99.90
15969;DHT22;8085;53.472;9.794;2023-03-26T05:48:01;5.10;99.90
15969;DHT22;8085;53.472;9.794;2023-03-26T05:50:28;5.20;99.90
15969;DHT22;8085;53.472;9.794;2023-03-26T05:52:56;5.20;99.90
15969;DHT22;8085;53.472;9.794;2023-03-26T05:55:23;5.30;99.90
15969;DHT22;8085;53.472;9.794;2023-03-26T05:57:50;5.30;99.90
15969;DHT22;8085;53.472;9.794;2023-03-26T06:00:17;5.30;99.90
15969;DHT22;8085;53.472;9.794;2023-03-26T06:02:44;5.30;99.90
15969;DHT22;8085;53.472;9.794;2023-03-26T06:05:11;5.30;99.90
15969;DHT22;8085;53.472;9.794;2023-03-26T06:07:37;5.40;99.90
15969;DHT22;8085;53.472;9.794;2023-03-26T06:10:07;5.40;99.90
15969;DHT22;8085;53.472;9.794;2023-03-26T06:12:35;5.40;99.90
15969;DHT22;8085;53.472;9.794;2023-03-26T06:15:02;5.40;99.90
15969;DHT22;8085;53.472;9.794;2023-03-26T06:17:29;5.40;99.90
15969;DHT22;8085;53.472;9.794;2023-03-26T06:19:56;5.40;99.90
15969;DHT22;8085;53.472;9.794;2023-03-26T06:22:23;5.40;99.90
15969;DHT22;8085;53.472;9.794;2023-03-26T06:24:49;5.40;99.90
15969;DHT22;8085;53.472;9.794;2023-03-26T06:27:18;5.50;99.90
15969;DHT22;8085;53.472;9.794;2023-03-26T06:29:45;5.50;99.90
15969;DHT22;8085;53.472;9.794;2023-03-26T06:32:12;5.50;99.90
15969;DHT22;8085;53.472;9.794;2023-03-26T06:34:39;5.50;99.90
15969;DHT22;8085;53.472;9.794;2023-03-26T06:37:06;5.60;99.90
15969;DHT22;8085;53.472;9.794;2023-03-26T06:39:32;5.60;99.90
15969;DHT22;8085;53.472;9.794;2023-03-26T06:41:59;5.60;99.90
15969;DHT22;8085;53.472;9.794;2023-03-26T06:44:28;5.60;99.90
15969;DHT22;8085;53.472;9.794;2023-03-26T06:46:54;5.60;99.90
15969;DHT22;8085;53.472;9.794;2023-03-26T06:49:21;5.70;99.90
15969;DHT22;8085;53.472;9.794;2023-03-26T06:51:48;5.70;99.90
15969;DHT22;8085;53.472;9.794;2023-03-26T06:54:15;5.70;99.90
15969;DHT22;8085;53.472;9.794;2023-03-26T06:56:42;5.70;99.90
15969;DHT22;8085;53.472;9.794;2023-03-26T06:59:09;5.70;99.90
15969;DHT22;8085;53.472;9.794;2023-03-26T07:01:37;5.70;99.90
15969;DHT22;8085;53.472;9.794;2023-03-26T07:04:04;5.70;99.90
15969;DHT22;8085;53.472;9.794;2023-03-26T07:06:31;5.70;99.90
15969;DHT22;8085;53.472;9.794;2023-03-26T07:08:58;5.80;99.90
15969;DHT22;8085;53.472;9.794;2023-03-26T07:11:24;5.80;99.90
15969;DHT22;8085;53.472;9.794;2023-03-26T07:13:51;5.80;99.90
15969;DHT22;8085;53.472;9.794;2023-03-26T07:16:20;5.80;99.90
15969;DHT22;8085;53.472;9.794;2023-03-26T07:18:49;5.80;99.90
15969;DHT22;8085;53.472;9.794;2023-03-26T07:21:17;5.80;99.90
15969;DHT22;8085;53.472;9.794;2023-03-26T07:23:44;5.90;99.90
15969;DHT22;8085;53.472;9.794;2023-03-26T07:26:21;5.80;99.90
15969;DHT22;8085;53.472;9.794;2023-03-26T07:28:54;5.80;99.90
15969;DHT22;8085;53.472;9.794;2023-03-26T07:31:26;5.80;99.90
15969;DHT22;8085;53.472;9.794;2023-03-26T07:34:05;5.80;99.90
15969;DHT22;8085;53.472;9.794;2023-03-26T07:36:39;5.80;99.90
15969;DHT22;8085;53.472;9.794;2023-03-26T07:39:18;5.90;99.90
15969;DHT22;8085;53.472;9.794;2023-03-26T07:41:49;5.90;99.90
15969;DHT22;8085;53.472;9.794;2023-03-26T07:44:30;5.90;99.90
15969;DHT22;8085;53.472;9.794;2023-03-26T07:47:01;5.80;92.30
15969;DHT22;8085;53.472;9.794;2023-03-26T07:49:31;5.80;73.20
15969;DHT22;8085;53.472;9.794;2023-03-26T07:51:58;5.90;83.60
15969;DHT22;8085;53.472;9.794;2023-03-26T07:54:26;5.90;8.80
15969;DHT22;8085;53.472;9.794;2023-03-26T07:56:55;5.90;1.00
15969;DHT22;8085;53.472;9.794;2023-03-26T07:59:27;5.90;1.00
15969;DHT22;8085;53.472;9.794;2023-03-26T08:02:13;6.00;1.00
15969;DHT22;8085;53.472;9.794;2023-03-26T08:04:57;6.00;1.00
15969;DHT22;8085;53.472;9.794;2023-03-26T08:07:33;6.00;1.00
15969;DHT22;8085;53.472;9.794;2023-03-26T08:10:09;6.00;1.00
15969;DHT22;8085;53.472;9.794;2023-03-26T08:12:44;6.10;1.00
15969;DHT22;8085;53.472;9.794;2023-03-26T08:15:19;6.00;1.00
15969;DHT22;8085;53.472;9.794;2023-03-26T08:17:53;5.90;1.00
15969;DHT22;8085;53.472;9.794;2023-03-26T08:20:31;6.00;1.00
15969;DHT22;8085;53.472;9.794;2023-03-26T08:23:06;6.10;1.00
15969;DHT22;8085;53.472;9.794;2023-03-26T08:25:42;6.10;1.00
15969;DHT22;8085;53.472;9.794;2023-03-26T08:28:22;6.20;1.00
15969;DHT22;8085;53.472;9.794;2023-03-26T08:30:52;6.20;1.00
15969;DHT22;8085;53.472;9.794;2023-03-26T08:33:20;6.10;1.00
15969;DHT22;8085;53.472;9.794;2023-03-26T08:35:49;6.20;1.00
15969;DHT22;8085;53.472;9.794;2023-03-26T08:38:17;6.10;1.00
15969;DHT22;8085;53.472;9.794;2023-03-26T08:41:17;6.00;1.00
15969;DHT22;8085;53.472;9.794;2023-03-26T08:50:26;6.20;1.00
15969;DHT22;8085;53.472;9.794;2023-03-26T08:53:20;6.10;1.00
15969;DHT22;8085;53.472;9.794;2023-03-26T08:55:52;5.90;1.00
15969;DHT22;8085;53.472;9.794;2023-03-26T08:58:38;6.00;1.00
15969;DHT22;8085;53.472;9.794;2023-03-26T09:16:43;6.70;1.00
15969;DHT22;8085;53.472;9.794;2023-03-26T09:25:44;6.50;1.00
15969;DHT22;8085;53.472;9.794;2023-03-26T09:28:52;6.50;1.00
15969;DHT22;8085;53.472;9.794;2023-03-26T09:34:28;6.50;1.00
15969;DHT22;8085;53.472;9.794;2023-03-26T09:37:00;6.50;1.00
15969;DHT22;8085;53.472;9.794;2023-03-26T09:39:35;6.60;1.00
15969;DHT22;8085;53.472;9.794;2023-03-26T09:42:16;6.80;1.00
15969;DHT22;8085;53.472;9.794;2023-03-26T09:48:19;6.70;1.00
15969;DHT22;8085;53.472;9.794;2023-03-26T09:51:19;6.50;1.00
15969;DHT22;8085;53.472;9.794;2023-03-26T09:54:04;6.40;1.00
15969;DHT22;8085;53.472;9.794;2023-03-26T09:56:43;6.70;1.00
15969;DHT22;8085;53.472;9.794;2023-03-26T09:59:28;6.70;1.00
15969;DHT22;8085;53.472;9.794;2023-03-26T10:02:12;6.60;1.00
15969;DHT22;8085;53.472;9.794;2023-03-26T10:05:03;6.70;1.00
15969;DHT22;8085;53.472;9.794;2023-03-26T10:07:52;6.90;1.00
15969;DHT22;8085;53.472;9.794;2023-03-26T10:10:27;7.00;1.00
15969;DHT22;8085;53.472;9.794;2023-03-26T10:13:01;6.70;1.00
15969;DHT22;8085;53.472;9.794;2023-03-26T10:15:41;6.70;99.90
15969;DHT22;8085;53.472;9.794;2023-03-26T10:18:20;6.80;1.00
15969;DHT22;8085;53.472;9.794;2023-03-26T10:20:55;6.80;1.00
15969;DHT22;8085;53.472;9.794;2023-03-26T10:23:48;6.70;1.00
15969;DHT22;8085;53.472;9.794;2023-03-26T10:32:30;6.90;99.90
15969;DHT22;8085;53.472;9.794;2023-03-26T10:35:10;7.10;99.90
15969;DHT22;8085;53.472;9.794;2023-03-26T10:37:53;7.00;18.60
15969;DHT22;8085;53.472;9.794;2023-03-26T10:40:29;7.20;1.00
15969;DHT22;8085;53.472;9.794;2023-03-26T10:43:23;7.40;1.00
15969;DHT22;8085;53.472;9.794;2023-03-26T10:46:16;7.30;1.00
15969;DHT22;8085;53.472;9.794;2023-03-26T10:49:36;7.70;1.00
15969;DHT22;8085;53.472;9.794;2023-03-26T10:52:07;7.70;99.90
15969;DHT22;8085;53.472;9.794;2023-03-26T10:54:43;7.40;99.90
15969;DHT22;8085;53.472;9.794;2023-03-26T10:57:23;7.50;1.00
15969;DHT22;8085;53.472;9.794;2023-03-26T10:59:54;7.40;99.90
15969;DHT22;8085;53.472;9.794;2023-03-26T11:02:27;7.30;99.90
15969;DHT22;8085;53.472;9.794;2023-03-26T11:05:02;7.30;1.00
15969;DHT22;8085;53.472;9.794;2023-03-26T11:07:38;7.20;1.00
15969;DHT22;8085;53.472;9.794;2023-03-26T11:10:12;7.50;1.00
15969;DHT22;8085;53.472;9.794;2023-03-26T11:12:45;7.60;1.00
15969;DHT22;8085;53.472;9.794;2023-03-26T11:15:20;7.70;99.90
15969;DHT22;8085;53.472;9.794;2023-03-26T11:17:57;7.80;32.90
15969;DHT22;8085;53.472;9.794;2023-03-26T11:20:34;8.00;99.90
15969;DHT22;8085;53.472;9.794;2023-03-26T11:23:17;8.40;64.70
15969;DHT22;8085;53.472;9.794;2023-03-26T11:25:56;8.30;1.00
15969;DHT22;8085;53.472;9.794;2023-03-26T11:28:34;7.90;1.00
15969;DHT22;8085;53.472;9.794;2023-03-26T11:31:12;7.70;1.00
15969;DHT22;8085;53.472;9.794;2023-03-26T11:33:45;7.50;1.00
15969;DHT22;8085;53.472;9.794;2023-03-26T11:36:17;7.90;1.00
15969;DHT22;8085;53.472;9.794;2023-03-26T11:38:46;8.20;99.90
15969;DHT22;8085;53.472;9.794;2023-03-26T11:41:17;9.00;1.00
15969;DHT22;8085;53.472;9.794;2023-03-26T11:43:48;8.50;1.00
15969;DHT22;8085;53.472;9.794;2023-03-26T11:46:19;8.80;1.00
15969;DHT22;8085;53.472;9.794;2023-03-26T11:48:48;9.00;99.90
15969;DHT22;8085;53.472;9.794;2023-03-26T11:51:29;8.80;99.90
15969;DHT22;8085;53.472;9.794;2023-03-26T11:53:57;8.40;64.30
15969;DHT22;8085;53.472;9.794;2023-03-26T11:56:29;8.40;1.00
15969;DHT22;8085;53.472;9.794;2023-03-26T11:59:01;8.50;1.00
15969;DHT22;8085;53.472;9.794;2023-03-26T12:01:41;8.80;99.90
15969;DHT22;8085;53.472;9.794;2023-03-26T12:04:10;9.10;1.00
15969;DHT22;8085;53.472;9.794;2023-03-26T12:06:50;9.40;99.90
15969;DHT22;8085;53.472;9.794;2023-03-26T12:09:18;9.00;1.00
15969;DHT22;8085;53.472;9.794;2023-03-26T12:11:46;8.60;5.80
15969;DHT22;8085;53.472;9.794;2023-03-26T12:14:17;8.40;1.00
15969;DHT22;8085;53.472;9.794;2023-03-26T12:16:59;8.20;1.00
15969;DHT22;8085;53.472;9.794;2023-03-26T12:19:34;8.20;1.00
15969;DHT22;8085;53.472;9.794;2023-03-26T12:22:03;8.10;99.90
15969;DHT22;8085;53.472;9.794;2023-03-26T12:24:31;8.50;1.00
15969;DHT22;8085;53.472;9.794;2023-03-26T12:27:00;8.70;99.90
15969;DHT22;8085;53.472;9.794;2023-03-26T12:29:28;8.90;99.90
15969;DHT22;8085;53.472;9.794;2023-03-26T12:32:04;9.30;15.00
15969;DHT22;8085;53.472;9.794;2023-03-26T12:34:32;9.60;19.10
15969;DHT22;8085;53.472;9.794;2023-03-26T12:37:02;9.70;1.00
15969;DHT22;8085;53.472;9.794;2023-03-26T12:39:37;9.50;70.00
15969;DHT22;8085;53.472;9.794;2023-03-26T12:42:11;8.40;1.00
15969;DHT22;8085;53.472;9.794;2023-03-26T12:44:43;8.10;99.90
15969;DHT22;8085;53.472;9.794;2023-03-26T12:47:17;8.30;1.00
15969;DHT22;8085;53.472;9.794;2023-03-26T12:49:44;8.70;99.90
15969;DHT22;8085;53.472;9.794;2023-03-26T12:52:35;8.80;1.00
15969;DHT22;8085;53.472;9.794;2023-03-26T12:55:16;9.50;99.90
15969;DHT22;8085;53.472;9.794;2023-03-26T12:57:51;9.80;1.00
15969;DHT22;8085;53.472;9.794;2023-03-26T13:00:27;9.60;99.90
15969;DHT22;8085;53.472;9.794;2023-03-26T13:03:10;9.30;99.90
15969;DHT22;8085;53.472;9.794;2023-03-26T13:05:50;8.80;99.90
15969;DHT22;8085;53.472;9.794;2023-03-26T13:08:37;9.10;99.90
15969;DHT22;8085;53.472;9.794;2023-03-26T13:11:12;8.80;99.90
15969;DHT22;8085;53.472;9.794;2023-03-26T13:13:53;8.70;1.00
15969;DHT22;8085;53.472;9.794;2023-03-26T13:16:29;9.50;1.00
15969;DHT22;8085;53.472;9.794;2023-03-26T13:19:06;9.90;1.00
15969;DHT22;8085;53.472;9.794;2023-03-26T13:21:42;9.50;99.90
15969;DHT22;8085;53.472;9.794;2023-03-26T13:24:19;9.60;99.90
15969;DHT22;8085;53.472;9.794;2023-03-26T13:26:59;9.80;99.90
15969;DHT22;8085;53.472;9.794;2023-03-26T13:29:33;10.00;1.00
15969;DHT22;8085;53.472;9.794;2023-03-26T13:32:07;9.30;1.00
15969;DHT22;8085;53.472;9.794;2023-03-26T13:34:48;9.40;1.00
15969;DHT22;8085;53.472;9.794;2023-03-26T13:37:22;9.70;1.00
15969;DHT22;8085;53.472;9.794;2023-03-26T13:40:00;9.40;1.00
15969;DHT22;8085;53.472;9.794;2023-03-26T13:42:38;10.00;1.00
15969;DHT22;8085;53.472;9.794;2023-03-26T13:45:19;10.30;99.90
15969;DHT22;8085;53.472;9.794;2023-03-26T13:47:51;10.60;99.90
15969;DHT22;8085;53.472;9.794;2023-03-26T13:50:23;10.40;1.00
15969;DHT22;8085;53.472;9.794;2023-03-26T13:52:55;9.90;1.00
15969;DHT22;8085;53.472;9.794;2023-03-26T13:55:27;9.50;99.90
15969;DHT22;8085;53.472;9.794;2023-03-26T13:57:59;10.20;1.00
15969;DHT22;8085;53.472;9.794;2023-03-26T14:00:38;10.30;40.00
15969;DHT22;8085;53.472;9.794;2023-03-26T14:03:09;10.60;1.00
15969;DHT22;8085;53.472;9.794;2023-03-26T14:05:44;10.60;1.00
15969;DHT22;8085;53.472;9.794;2023-03-26T14:08:17;10.20;86.90
15969;DHT22;8085;53.472;9.794;2023-03-26T14:10:51;10.10;1.00
15969;DHT22;8085;53.472;9.794;2023-03-26T14:13:23;10.30;99.90
15969;DHT22;8085;53.472;9.794;2023-03-26T14:15:54;9.90;99.90
15969;DHT22;8085;53.472;9.794;2023-03-26T14:18:29;9.80;1.00
15969;DHT22;8085;53.472;9.794;2023-03-26T14:21:12;10.00;99.90
15969;DHT22;8085;53.472;9.794;2023-03-26T14:24:08;9.70;1.00
15969;DHT22;8085;53.472;9.794;2023-03-26T14:27:10;10.00;1.00
15969;DHT22;8085;53.472;9.794;2023-03-26T14:30:03;10.30;1.00
15969;DHT22;8085;53.472;9.794;2023-03-26T14:32:50;10.40;99.90
15969;DHT22;8085;53.472;9.794;2023-03-26T14:35:27;10.40;99.90
15969;DHT22;8085;53.472;9.794;2023-03-26T14:41:10;10.10;99.90
15969;DHT22;8085;53.472;9.794;2023-03-26T14:44:05;10.40;99.90
15969;DHT22;8085;53.472;9.794;2023-03-26T14:46:52;10.20;99.90
15969;DHT22;8085;53.472;9.794;2023-03-26T14:52:26;9.40;1.00
15969;DHT22;8085;53.472;9.794;2023-03-26T14:54:59;9.50;99.90
15969;DHT22;8085;53.472;9.794;2023-03-26T14:57:51;10.10;30.00
15969;DHT22;8085;53.472;9.794;2023-03-26T15:03:50;9.90;1.00
15969;DHT22;8085;53.472;9.794;2023-03-26T15:06:52;9.30;1.00
15969;DHT22;8085;53.472;9.794;2023-03-26T15:09:55;9.70;99.90
15969;DHT22;8085;53.472;9.794;2023-03-26T15:12:39;9.90;93.30
15969;DHT22;8085;53.472;9.794;2023-03-26T15:15:42;9.40;99.90
15969;DHT22;8085;53.472;9.794;2023-03-26T15:27:56;9.60;99.90
15969;DHT22;8085;53.472;9.794;2023-03-26T15:31:00;9.50;1.00
15969;DHT22;8085;53.472;9.794;2023-03-26T15:33:59;9.20;1.00
15969;DHT22;8085;53.472;9.794;2023-03-26T15:37:05;9.20;1.00
15969;DHT22;8085;53.472;9.794;2023-03-26T15:39:48;8.90;99.90
15969;DHT22;8085;53.472;9.794;2023-03-26T15:42:25;8.90;1.00
15969;DHT22;8085;53.472;9.794;2023-03-26T15:45:00;8.70;1.00
15969;DHT22;8085;53.472;9.794;2023-03-26T15:47:52;8.70;1.00
15969;DHT22;8085;53.472;9.794;2023-03-26T15:50:34;8.50;1.00
15969;DHT22;8085;53.472;9.794;2023-03-26T15:53:13;8.50;99.90
15969;DHT22;8085;53.472;9.794;2023-03-26T15:55:54;8.60;1.00
15969;DHT22;8085;53.472;9.794;2023-03-26T15:58:27;8.40;99.90
15969;DHT22;8085;53.472;9.794;2023-03-26T16:01:07;8.40;99.90
15969;DHT22;8085;53.472;9.794;2023-03-26T16:03:49;8.30;99.90
15969;DHT22;8085;53.472;9.794;2023-03-26T16:06:27;8.30;1.00
15969;DHT22;8085;53.472;9.794;2023-03-26T16:09:03;8.30;99.90
15969;DHT22;8085;53.472;9.794;2023-03-26T16:11:48;8.40;1.00
15969;DHT22;8085;53.472;9.794;2023-03-26T16:14:19;8.40;1.00
15969;DHT22;8085;53.472;9.794;2023-03-26T16:16:54;8.80;99.90
15969;DHT22;8085;53.472;9.794;2023-03-26T16:22:36;8.40;1.00
15969;DHT22;8085;53.472;9.794;2023-03-26T16:25:24;8.80;1.00
15969;DHT22;8085;53.472;9.794;2023-03-26T16:31:29;8.20;1.00
15969;DHT22;8085;53.472;9.794;2023-03-26T16:34:24;8.10;99.90
15969;DHT22;8085;53.472;9.794;2023-03-26T16:36:53;8.00;1.00
15969;DHT22;8085;53.472;9.794;2023-03-26T16:39:22;8.00;1.00
15969;DHT22;8085;53.472;9.794;2023-03-26T16:42:23;7.80;1.00
15969;DHT22;8085;53.472;9.794;2023-03-26T16:44:58;7.70;1.00
15969;DHT22;8085;53.472;9.794;2023-03-26T16:47:36;7.70;99.90
15969;DHT22;8085;53.472;9.794;2023-03-26T16:50:14;7.70;99.90
15969;DHT22;8085;53.472;9.794;2023-03-26T16:52:49;7.70;99.90
15969;DHT22;8085;53.472;9.794;2023-03-26T16:55:27;7.60;1.00
15969;DHT22;8085;53.472;9.794;2023-03-26T16:58:03;7.50;99.90
15969;DHT22;8085;53.472;9.794;2023-03-26T17:00:46;7.50;1.00
15969;DHT22;8085;53.472;9.794;2023-03-26T17:03:26;7.40;99.90
15969;DHT22;8085;53.472;9.794;2023-03-26T17:06:04;7.20;1.00
15969;DHT22;8085;53.472;9.794;2023-03-26T17:08:44;7.20;99.90
15969;DHT22;8085;53.472;9.794;2023-03-26T17:11:21;7.10;10.40
15969;DHT22;8085;53.472;9.794;2023-03-26T17:13:57;7.10;1.00
15969;DHT22;8085;53.472;9.794;2023-03-26T17:16:33;7.10;1.00
15969;DHT22;8085;53.472;9.794;2023-03-26T17:19:05;7.00;99.90
15969;DHT22;8085;53.472;9.794;2023-03-26T17:21:44;7.00;99.90
15969;DHT22;8085;53.472;9.794;2023-03-26T17:24:24;6.90;1.00
15969;DHT22;8085;53.472;9.794;2023-03-26T17:26:59;6.80;99.90
15969;DHT22;8085;53.472;9.794;2023-03-26T17:29:47;6.80;99.90
15969;DHT22;8085;53.472;9.794;2023-03-26T17:32:16;6.70;1.00
15969;DHT22;8085;53.472;9.794;2023-03-26T17:34:58;6.70;1.00
15969;DHT22;8085;53.472;9.794;2023-03-26T17:37:41;6.70;1.00
15969;DHT22;8085;53.472;9.794;2023-03-26T17:40:45;6.60;1.00
15969;DHT22;8085;53.472;9.794;2023-03-26T17:43:43;6.60;1.00
15969;DHT22;8085;53.472;9.794;2023-03-26T17:46:21;6.60;1.00
15969;DHT22;8085;53.472;9.794;2023-03-26T17:48:56;6.50;1.00
15969;DHT22;8085;53.472;9.794;2023-03-26T17:51:34;6.40;1.00
15969;DHT22;8085;53.472;9.794;2023-03-26T17:54:07;6.30;1.00
15969;DHT22;8085;53.472;9.794;2023-03-26T17:56:41;6.30;1.00
15969;DHT22;8085;53.472;9.794;2023-03-26T17:59:17;6.30;1.00